Time;durP1;ratioP1;P1;durP2;ratioP2;P2;SDS_P1;SDS_P2;PMS_P1;PMS_P2;Temp;Humidity;BMP_temperature;BMP_pressure;BME280_temperature;BME280_humidity;BME280_pressure;Samples;Min_cycle;Max_cycle;Signal;HPM_P1;HPM_P2
2023/09/05 00:00:19;;;;;;;4.63;4.18;;;;;;;;;;5076233;28;20033;-43
2023/09/05 00:02:48;;;;;;;6.60;4.05;;;;;;;;;;5074301;28;20028;-44
2023/09/05 00:05:13;;;;;;;11.75;3.75;;;;;;;;;;5069670;28;20041;-43
2023/09/05 00:07:40;;;;;;;5.32;3.83;;;;;;;;;;5072801;28;20043;-44
2023/09/05 00:10:08;;;;;;;6.65;3.83;;;;;;;;;;5076235;28;20040;-43
2023/09/05 00:12:34;;;;;;;9.38;3.78;;;;;;;;;;5077774;28;20020;-43
2023/09/05 00:15:01;;;;;;;4.53;3.72;;;;;;;;;;5073084;28;20086;-46
2023/09/05 00:17:27;;;;;;;10.07;4.47;;;;;;;;;;5077234;28;20519;-43
2023/09/05 00:19:55;;;;;;;6.05;4.00;;;;;;;;;;5081078;28;20126;-44
2023/09/05 00:22:21;;;;;;;4.60;3.80;;;;;;;;;;5081602;28;20031;-45
2023/09/05 00:24:48;;;;;;;9.57;4.88;;;;;;;;;;5070346;28;20566;-45
2023/09/05 00:27:13;;;;;;;7.20;4.03;;;;;;;;;;5066859;28;20111;-45
2023/09/05 00:29:40;;;;;;;15.73;4.00;;;;;;;;;;5071099;28;20558;-47
2023/09/05 00:32:06;;;;;;;6.30;3.65;;;;;;;;;;5075058;28;20020;-47
2023/09/05 00:34:33;;;;;;;6.38;4.05;;;;;;;;;;5069064;28;20556;-43
2023/09/05 00:37:02;;;;;;;4.80;3.63;;;;;;;;;;5071042;28;20025;-43
2023/09/05 00:39:28;;;;;;;3.78;3.42;;;;;;;;;;5075463;28;20040;-44
2023/09/05 00:41:56;;;;;;;5.25;3.40;;;;;;;;;;5070563;28;20032;-44
2023/09/05 00:44:25;;;;;;;4.50;3.75;;;;;;;;;;5068535;28;20032;-43
2023/09/05 00:46:54;;;;;;;4.40;3.47;;;;;;;;;;5075702;28;20029;-44
2023/09/05 00:49:27;;;;;;;6.00;4.25;;;;;;;;;;5067056;28;20041;-42
2023/09/05 00:51:57;;;;;;;8.38;4.25;;;;;;;;;;5068081;28;20064;-47
2023/09/05 00:54:23;;;;;;;6.85;3.70;;;;;;;;;;5076108;28;20033;-46
2023/09/05 00:56:49;;;;;;;4.72;3.78;;;;;;;;;;5074382;28;20032;-43
2023/09/05 00:59:15;;;;;;;6.97;4.32;;;;;;;;;;5076122;28;20040;-46
2023/09/05 01:01:41;;;;;;;9.13;4.07;;;;;;;;;;5076213;28;20031;-44
2023/09/05 01:04:06;;;;;;;5.40;3.75;;;;;;;;;;5067925;28;20037;-45
2023/09/05 01:06:50;;;;;;;10.15;4.07;;;;;;;;;;5072888;28;21314;-43
2023/09/05 01:09:56;;;;;;;8.98;4.07;;;;;;;;;;5075244;28;20037;-42
2023/09/05 01:12:22;;;;;;;7.68;4.25;;;;;;;;;;5076307;28;20036;-46
2023/09/05 01:14:48;;;;;;;4.60;3.60;;;;;;;;;;5071290;28;20059;-43
2023/09/05 01:17:13;;;;;;;8.32;4.10;;;;;;;;;;5076941;28;20033;-43
2023/09/05 01:19:40;;;;;;;3.95;3.50;;;;;;;;;;5073345;28;20040;-43
2023/09/05 01:22:26;;;;;;;5.22;3.78;;;;;;;;;;5076869;28;20060;-48
2023/09/05 01:24:52;;;;;;;5.50;3.78;;;;;;;;;;5075435;28;20041;-45
2023/09/05 01:27:21;;;;;;;6.07;3.50;;;;;;;;;;5074968;28;20032;-47
2023/09/05 01:29:47;;;;;;;4.55;3.40;;;;;;;;;;5066201;28;20067;-48
2023/09/05 01:32:14;;;;;;;5.45;3.33;;;;;;;;;;5075961;28;20043;-45
2023/09/05 01:34:40;;;;;;;5.32;4.25;;;;;;;;;;5073564;28;20068;-44
2023/09/05 01:37:06;;;;;;;8.80;3.70;;;;;;;;;;5086706;28;20043;-45
2023/09/05 01:39:31;;;;;;;5.03;3.28;;;;;;;;;;5074351;28;20114;-48
2023/09/05 01:41:58;;;;;;;7.20;3.33;;;;;;;;;;5074549;28;20447;-43
2023/09/05 01:44:24;;;;;;;4.47;3.38;;;;;;;;;;5075022;28;20043;-45
2023/09/05 01:46:49;;;;;;;8.00;3.83;;;;;;;;;;5074675;28;20025;-44
2023/09/05 01:49:15;;;;;;;5.38;3.75;;;;;;;;;;5067442;28;20106;-44
2023/09/05 01:51:40;;;;;;;4.50;3.60;;;;;;;;;;5060284;28;20059;-46
2023/09/05 01:54:05;;;;;;;3.28;3.05;;;;;;;;;;5070688;28;20067;-44
2023/09/05 01:56:31;;;;;;;8.10;3.70;;;;;;;;;;5068387;28;20478;-43
2023/09/05 01:58:56;;;;;;;7.10;3.38;;;;;;;;;;5085208;28;20056;-44
2023/09/05 02:01:22;;;;;;;5.50;3.63;;;;;;;;;;5075557;28;20115;-42
2023/09/05 02:03:48;;;;;;;11.77;3.58;;;;;;;;;;5072710;28;20104;-41
2023/09/05 02:06:14;;;;;;;3.85;3.35;;;;;;;;;;5074424;28;20420;-43
2023/09/05 02:08:40;;;;;;;6.90;3.40;;;;;;;;;;5069385;28;20067;-44
2023/09/05 02:11:05;;;;;;;6.43;3.42;;;;;;;;;;5075030;28;20397;-43
2023/09/05 02:13:31;;;;;;;5.13;3.08;;;;;;;;;;5070167;28;20032;-44
2023/09/05 02:15:57;;;;;;;7.35;3.30;;;;;;;;;;5075290;28;20031;-43
2023/09/05 02:18:22;;;;;;;3.53;3.00;;;;;;;;;;5074994;28;20044;-43
2023/09/05 02:20:48;;;;;;;3.40;3.13;;;;;;;;;;5074956;28;20543;-45
2023/09/05 02:23:13;;;;;;;5.35;3.25;;;;;;;;;;5075064;28;20035;-44
2023/09/05 02:25:39;;;;;;;6.95;3.55;;;;;;;;;;5070410;28;20421;-42
2023/09/05 02:28:05;;;;;;;3.30;3.00;;;;;;;;;;5074774;28;20021;-43
2023/09/05 02:30:30;;;;;;;4.30;2.83;;;;;;;;;;5074676;28;20052;-42
2023/09/05 02:32:57;;;;;;;7.78;3.10;;;;;;;;;;5071838;28;20036;-44
2023/09/05 02:35:23;;;;;;;3.85;3.10;;;;;;;;;;5069956;28;20036;-44
2023/09/05 02:37:50;;;;;;;4.47;3.30;;;;;;;;;;5075725;28;20021;-45
2023/09/05 02:40:16;;;;;;;4.40;3.72;;;;;;;;;;5073651;28;20029;-45
2023/09/05 02:42:41;;;;;;;4.88;3.28;;;;;;;;;;5075560;28;20027;-42
2023/09/05 02:45:07;;;;;;;3.67;3.38;;;;;;;;;;5071076;28;20036;-43
2023/09/05 02:47:33;;;;;;;7.85;3.63;;;;;;;;;;5067570;28;20476;-44
2023/09/05 02:49:58;;;;;;;5.10;3.20;;;;;;;;;;5070430;28;20036;-43
2023/09/05 02:52:24;;;;;;;5.45;3.70;;;;;;;;;;5064129;28;20032;-45
2023/09/05 02:54:50;;;;;;;4.60;3.40;;;;;;;;;;5071248;28;20037;-45
2023/09/05 02:57:16;;;;;;;4.05;2.95;;;;;;;;;;5071849;28;20058;-43
2023/09/05 02:59:41;;;;;;;4.53;3.10;;;;;;;;;;5074359;28;20060;-44
2023/09/05 03:02:07;;;;;;;4.57;3.42;;;;;;;;;;5073722;28;20061;-46
2023/09/05 03:04:32;;;;;;;3.92;3.38;;;;;;;;;;5072114;28;20029;-44
2023/09/05 03:07:02;;;;;;;7.35;3.55;;;;;;;;;;5071095;28;20489;-45
2023/09/05 03:09:29;;;;;;;3.28;2.97;;;;;;;;;;5067289;28;20036;-42
2023/09/05 03:11:54;;;;;;;3.78;3.17;;;;;;;;;;5078577;28;20090;-41
2023/09/05 03:14:20;;;;;;;6.15;3.70;;;;;;;;;;5074004;28;20064;-43
2023/09/05 03:16:45;;;;;;;6.10;3.38;;;;;;;;;;5073719;28;20092;-44
2023/09/05 03:19:11;;;;;;;7.28;3.40;;;;;;;;;;5073749;28;20096;-43
2023/09/05 03:21:40;;;;;;;7.88;3.17;;;;;;;;;;5074679;28;20027;-42
2023/09/05 03:24:05;;;;;;;3.88;3.22;;;;;;;;;;5066389;28;20040;-42
2023/09/05 03:26:31;;;;;;;3.70;3.40;;;;;;;;;;5072818;28;20027;-41
2023/09/05 03:28:58;;;;;;;7.85;3.50;;;;;;;;;;5074798;28;20024;-44
2023/09/05 03:31:24;;;;;;;6.85;3.30;;;;;;;;;;5068437;28;20051;-44
2023/09/05 03:33:50;;;;;;;3.97;3.17;;;;;;;;;;5073374;28;20438;-43
2023/09/05 03:36:16;;;;;;;3.40;3.10;;;;;;;;;;5069771;28;20070;-43
2023/09/05 03:38:41;;;;;;;5.47;3.70;;;;;;;;;;5073740;28;20032;-43
2023/09/05 03:41:08;;;;;;;11.57;3.03;;;;;;;;;;5073451;28;20055;-43
2023/09/05 03:43:33;;;;;;;4.93;3.15;;;;;;;;;;5070575;28;20020;-43
2023/09/05 03:45:59;;;;;;;4.03;3.40;;;;;;;;;;5076943;28;20044;-43
2023/09/05 03:48:25;;;;;;;3.75;3.38;;;;;;;;;;5077702;28;20021;-47
2023/09/05 03:50:50;;;;;;;3.90;3.38;;;;;;;;;;5071973;28;20041;-44
2023/09/05 03:53:15;;;;;;;6.07;3.30;;;;;;;;;;5078070;28;20024;-44
2023/09/05 03:55:41;;;;;;;9.20;3.58;;;;;;;;;;5075406;28;20045;-43
2023/09/05 03:58:07;;;;;;;6.90;3.38;;;;;;;;;;5077643;28;20024;-42
2023/09/05 04:00:33;;;;;;;3.60;3.30;;;;;;;;;;5077167;28;20064;-44
2023/09/05 04:02:59;;;;;;;3.25;2.95;;;;;;;;;;5074813;28;20112;-42
2023/09/05 04:05:25;;;;;;;3.90;3.25;;;;;;;;;;5077745;28;20044;-45
2023/09/05 04:07:50;;;;;;;4.80;3.08;;;;;;;;;;5075374;28;20029;-44
2023/09/05 04:10:15;;;;;;;4.32;3.25;;;;;;;;;;5075480;28;20043;-44
2023/09/05 04:12:41;;;;;;;5.63;3.33;;;;;;;;;;5070083;28;20044;-45
2023/09/05 04:15:07;;;;;;;4.82;3.25;;;;;;;;;;5070794;28;20402;-45
2023/09/05 04:17:33;;;;;;;6.40;3.08;;;;;;;;;;5068786;28;20107;-45
2023/09/05 04:19:58;;;;;;;3.97;3.22;;;;;;;;;;5075503;28;20119;-44
2023/09/05 04:22:25;;;;;;;5.13;3.20;;;;;;;;;;5076589;28;20385;-43
2023/09/05 04:24:54;;;;;;;4.30;3.17;;;;;;;;;;5067534;28;20041;-46
2023/09/05 04:27:21;;;;;;;3.75;3.08;;;;;;;;;;5076062;28;20469;-46
2023/09/05 04:29:51;;;;;;;3.47;3.17;;;;;;;;;;5076255;28;20394;-43
2023/09/05 04:32:26;;;;;;;4.40;3.22;;;;;;;;;;5076007;28;20035;-43
2023/09/05 04:34:56;;;;;;;7.03;3.40;;;;;;;;;;5075488;28;20043;-46
2023/09/05 04:37:22;;;;;;;5.45;3.75;;;;;;;;;;5066465;28;20068;-46
2023/09/05 04:39:47;;;;;;;3.70;3.40;;;;;;;;;;5074354;28;20040;-43
2023/09/05 04:42:13;;;;;;;7.05;3.20;;;;;;;;;;5074589;28;20543;-44
2023/09/05 04:44:38;;;;;;;7.75;3.65;;;;;;;;;;5068935;28;20025;-43
2023/09/05 04:47:24;;;;;;;6.70;3.20;;;;;;;;;;5075630;28;20028;-43
2023/09/05 04:49:51;;;;;;;5.35;3.17;;;;;;;;;;5067753;28;20037;-45
2023/09/05 04:52:21;;;;;;;5.22;3.47;;;;;;;;;;5070596;28;20036;-45
2023/09/05 04:54:46;;;;;;;5.72;3.70;;;;;;;;;;5072321;28;20443;-42
2023/09/05 04:57:13;;;;;;;4.90;3.20;;;;;;;;;;5076398;28;20029;-43
2023/09/05 04:59:40;;;;;;;4.05;3.45;;;;;;;;;;5074328;28;20040;-43
2023/09/05 05:02:05;;;;;;;6.57;2.90;;;;;;;;;;5070413;28;20024;-43
2023/09/05 05:04:31;;;;;;;5.20;3.33;;;;;;;;;;5073509;28;20048;-44
2023/09/05 05:06:56;;;;;;;8.00;3.50;;;;;;;;;;5070084;28;20031;-45
2023/09/05 05:09:23;;;;;;;7.93;3.45;;;;;;;;;;5076437;28;20060;-43
2023/09/05 05:11:48;;;;;;;5.75;3.25;;;;;;;;;;5072634;28;20029;-45
2023/09/05 05:14:13;;;;;;;4.88;3.30;;;;;;;;;;5067271;28;20071;-44
2023/09/05 05:16:43;;;;;;;3.78;3.30;;;;;;;;;;5073989;28;20031;-43
2023/09/05 05:19:10;;;;;;;6.93;3.83;;;;;;;;;;5076377;28;20102;-43
2023/09/05 05:21:36;;;;;;;9.68;3.42;;;;;;;;;;5075351;28;20025;-44
2023/09/05 05:24:02;;;;;;;5.22;3.35;;;;;;;;;;5073273;28;20085;-44
2023/09/05 05:26:29;;;;;;;3.95;3.05;;;;;;;;;;5070490;28;20091;-43
2023/09/05 05:28:54;;;;;;;5.50;3.85;;;;;;;;;;5071033;28;20398;-44
2023/09/05 05:31:20;;;;;;;3.55;2.90;;;;;;;;;;5069181;28;20028;-44
2023/09/05 05:33:45;;;;;;;7.30;3.38;;;;;;;;;;5068521;28;20031;-45
2023/09/05 05:36:11;;;;;;;3.90;3.60;;;;;;;;;;5069040;28;20036;-44
2023/09/05 05:38:36;;;;;;;3.53;3.22;;;;;;;;;;5073393;28;20032;-42
2023/09/05 05:41:02;;;;;;;5.60;3.00;;;;;;;;;;5071286;28;20040;-44
2023/09/05 05:43:29;;;;;;;3.40;3.10;;;;;;;;;;5071528;28;20127;-43
2023/09/05 05:45:54;;;;;;;6.22;3.03;;;;;;;;;;5064811;28;20033;-46
2023/09/05 05:48:20;;;;;;;7.13;3.22;;;;;;;;;;5065812;28;20055;-47
2023/09/05 05:50:45;;;;;;;7.85;3.20;;;;;;;;;;5068637;28;20037;-42
2023/09/05 05:53:12;;;;;;;4.75;3.60;;;;;;;;;;5067107;28;20103;-43
2023/09/05 05:55:37;;;;;;;3.28;2.97;;;;;;;;;;5073428;28;20036;-45
2023/09/05 05:58:03;;;;;;;2.85;2.63;;;;;;;;;;5073092;28;20058;-44
2023/09/05 06:00:29;;;;;;;3.50;3.20;;;;;;;;;;5062091;28;20045;-46
2023/09/05 06:02:55;;;;;;;5.05;3.28;;;;;;;;;;5069863;28;20028;-47
2023/09/05 06:05:21;;;;;;;6.53;3.25;;;;;;;;;;5064464;28;20498;-44
2023/09/05 06:07:47;;;;;;;5.30;2.95;;;;;;;;;;5069987;28;20059;-47
2023/09/05 06:10:12;;;;;;;3.90;3.25;;;;;;;;;;5068210;28;20111;-45
2023/09/05 06:12:38;;;;;;;5.85;3.42;;;;;;;;;;5067744;28;20037;-43
2023/09/05 06:15:04;;;;;;;8.02;3.40;;;;;;;;;;5069320;28;20043;-45
2023/09/05 06:17:29;;;;;;;3.83;3.42;;;;;;;;;;5074496;28;20076;-42
2023/09/05 06:19:55;;;;;;;6.82;3.28;;;;;;;;;;5072105;28;20513;-42
2023/09/05 06:22:20;;;;;;;6.60;3.40;;;;;;;;;;5074847;28;20035;-42
2023/09/05 06:24:45;;;;;;;3.42;3.08;;;;;;;;;;5073679;28;20044;-45
2023/09/05 06:27:11;;;;;;;10.07;3.75;;;;;;;;;;5067571;28;20031;-44
2023/09/05 06:29:37;;;;;;;4.15;3.50;;;;;;;;;;5074854;28;20037;-44
2023/09/05 06:32:03;;;;;;;5.50;3.10;;;;;;;;;;5064433;28;20033;-44
2023/09/05 06:34:28;;;;;;;6.57;2.97;;;;;;;;;;5073444;28;20025;-43
2023/09/05 06:36:53;;;;;;;7.00;2.90;;;;;;;;;;5075675;28;20025;-44
2023/09/05 06:39:19;;;;;;;6.00;3.22;;;;;;;;;;5071477;28;20043;-43
2023/09/05 06:41:44;;;;;;;4.57;2.85;;;;;;;;;;5067708;28;20100;-42
2023/09/05 06:44:10;;;;;;;4.75;2.80;;;;;;;;;;5074144;28;20043;-42
2023/09/05 06:46:36;;;;;;;5.28;2.75;;;;;;;;;;5075314;28;20032;-44
2023/09/05 06:49:02;;;;;;;6.63;2.90;;;;;;;;;;5073138;28;20078;-44
2023/09/05 06:51:30;;;;;;;6.40;3.40;;;;;;;;;;5072482;28;20029;-42
2023/09/05 06:53:56;;;;;;;2.88;2.45;;;;;;;;;;5072146;28;20148;-42
2023/09/05 06:56:21;;;;;;;3.70;2.78;;;;;;;;;;5070179;28;20036;-43
2023/09/05 06:58:47;;;;;;;7.05;3.10;;;;;;;;;;5067415;28;20045;-43
2023/09/05 07:01:13;;;;;;;5.22;2.78;;;;;;;;;;5067080;28;20036;-43
2023/09/05 07:03:38;;;;;;;4.35;2.95;;;;;;;;;;5073659;28;20104;-42
2023/09/05 07:06:04;;;;;;;3.97;2.90;;;;;;;;;;5071750;28;20036;-43
2023/09/05 07:08:31;;;;;;;8.65;2.80;;;;;;;;;;5071474;28;20373;-45
2023/09/05 07:10:56;;;;;;;6.30;3.10;;;;;;;;;;5072797;28;20505;-45
2023/09/05 07:13:22;;;;;;;3.47;2.72;;;;;;;;;;5073735;28;20028;-44
2023/09/05 07:15:47;;;;;;;5.65;2.90;;;;;;;;;;5073732;28;20037;-47
2023/09/05 07:18:13;;;;;;;5.40;2.90;;;;;;;;;;5075813;28;20032;-45
2023/09/05 07:20:39;;;;;;;5.50;2.80;;;;;;;;;;5077289;28;20439;-44
2023/09/05 07:23:04;;;;;;;8.70;2.67;;;;;;;;;;5073353;28;20025;-45
2023/09/05 07:25:29;;;;;;;3.00;2.70;;;;;;;;;;5078078;28;20041;-42
2023/09/05 07:27:55;;;;;;;7.05;3.03;;;;;;;;;;5076227;28;20024;-43
2023/09/05 07:30:21;;;;;;;9.02;2.90;;;;;;;;;;5070503;28;20048;-43
2023/09/05 07:32:46;;;;;;;4.32;2.53;;;;;;;;;;5076384;28;20035;-46
2023/09/05 07:35:11;;;;;;;4.90;2.80;;;;;;;;;;5076917;28;20040;-42
2023/09/05 07:37:38;;;;;;;7.10;2.45;;;;;;;;;;5075802;28;20059;-44
2023/09/05 07:40:05;;;;;;;13.13;2.72;;;;;;;;;;5076962;28;20036;-48
2023/09/05 07:42:31;;;;;;;4.28;2.75;;;;;;;;;;5078172;28;20036;-44
2023/09/05 07:44:56;;;;;;;4.75;2.63;;;;;;;;;;5075639;28;20043;-45
2023/09/05 07:47:22;;;;;;;8.75;2.90;;;;;;;;;;5077472;28;20044;-45
2023/09/05 07:49:47;;;;;;;2.58;2.38;;;;;;;;;;5075552;28;20096;-46
2023/09/05 07:52:12;;;;;;;4.82;3.15;;;;;;;;;;5077555;28;20020;-45
2023/09/05 07:54:38;;;;;;;9.38;2.83;;;;;;;;;;5075828;28;20031;-42
2023/09/05 07:57:03;;;;;;;3.05;2.42;;;;;;;;;;5075490;28;20048;-42
2023/09/05 07:59:31;;;;;;;5.47;2.85;;;;;;;;;;5074513;28;20059;-44
2023/09/05 08:01:56;;;;;;;8.30;2.95;;;;;;;;;;5072612;28;20020;-45
2023/09/05 08:04:22;;;;;;;3.28;2.35;;;;;;;;;;5074184;28;20043;-46
2023/09/05 08:06:48;;;;;;;16.98;3.35;;;;;;;;;;5067812;28;20031;-44
2023/09/05 08:09:14;;;;;;;6.05;2.88;;;;;;;;;;5077344;28;20090;-44
2023/09/05 08:11:39;;;;;;;6.90;2.45;;;;;;;;;;5075207;28;20056;-45
2023/09/05 08:14:05;;;;;;;3.78;2.60;;;;;;;;;;5073751;28;20115;-45
2023/09/05 08:16:30;;;;;;;6.05;2.58;;;;;;;;;;5077639;28;20112;-45
2023/09/05 08:18:55;;;;;;;7.07;3.08;;;;;;;;;;5077011;28;20055;-43
2023/09/05 08:21:21;;;;;;;5.40;2.38;;;;;;;;;;5074718;28;20044;-43
2023/09/05 08:23:49;;;;;;;4.38;2.58;;;;;;;;;;5077498;28;20036;-43
2023/09/05 08:26:17;;;;;;;6.07;2.50;;;;;;;;;;5074261;28;20040;-44
2023/09/05 08:28:44;;;;;;;4.25;2.60;;;;;;;;;;5077181;28;20040;-47
2023/09/05 08:31:15;;;;;;;7.30;3.58;;;;;;;;;;5074821;28;20053;-45
2023/09/05 08:33:41;;;;;;;5.68;2.67;;;;;;;;;;5075875;28;20020;-47
2023/09/05 08:36:08;;;;;;;4.05;2.67;;;;;;;;;;5069051;28;20037;-43
2023/09/05 08:38:37;;;;;;;3.95;2.47;;;;;;;;;;5072983;28;20036;-43
2023/09/05 08:41:03;;;;;;;6.88;2.70;;;;;;;;;;5070027;28;20045;-47
2023/09/05 08:43:28;;;;;;;3.80;2.80;;;;;;;;;;5071184;28;20032;-44
2023/09/05 08:45:55;;;;;;;3.70;2.47;;;;;;;;;;5068076;28;20077;-47
2023/09/05 08:48:21;;;;;;;5.10;2.70;;;;;;;;;;5077098;28;20029;-44
2023/09/05 08:50:47;;;;;;;6.00;2.35;;;;;;;;;;5068461;28;20043;-45
2023/09/05 08:53:15;;;;;;;5.15;2.80;;;;;;;;;;5074567;28;20039;-46
2023/09/05 08:55:42;;;;;;;2.40;2.20;;;;;;;;;;5069556;28;20059;-46
2023/09/05 08:58:15;;;;;;;6.70;2.70;;;;;;;;;;5076214;28;20082;-44
2023/09/05 09:00:40;;;;;;;6.35;2.33;;;;;;;;;;5074399;28;20062;-45
2023/09/05 09:03:06;;;;;;;5.97;2.85;;;;;;;;;;5076446;28;20052;-44
2023/09/05 09:05:32;;;;;;;5.53;2.75;;;;;;;;;;5076497;28;20112;-44
2023/09/05 09:07:58;;;;;;;6.07;2.50;;;;;;;;;;5073191;28;20029;-44
2023/09/05 09:10:23;;;;;;;5.05;2.50;;;;;;;;;;5074985;28;20025;-45
2023/09/05 09:12:54;;;;;;;10.40;2.75;;;;;;;;;;5076366;28;20394;-46
2023/09/05 09:15:23;;;;;;;3.05;2.40;;;;;;;;;;5070894;28;20484;-46
2023/09/05 09:17:50;;;;;;;6.35;2.67;;;;;;;;;;5073575;28;20030;-46
2023/09/05 09:20:16;;;;;;;8.80;2.95;;;;;;;;;;5076381;28;20046;-44
2023/09/05 09:22:42;;;;;;;3.97;2.42;;;;;;;;;;5075262;28;20024;-43
2023/09/05 09:25:20;;;;;;;3.83;2.72;;;;;;;;;;5067060;28;20044;-46
2023/09/05 09:27:50;;;;;;;3.40;2.53;;;;;;;;;;5062349;28;20055;-44
2023/09/05 09:30:15;;;;;;;2.72;2.53;;;;;;;;;;5070421;28;20597;-45
2023/09/05 09:32:41;;;;;;;3.75;2.60;;;;;;;;;;5074878;28;20119;-45
2023/09/05 09:35:10;;;;;;;6.88;2.53;;;;;;;;;;5072710;28;20096;-49
2023/09/05 09:37:36;;;;;;;2.70;2.50;;;;;;;;;;5075933;28;20119;-45
2023/09/05 09:40:04;;;;;;;8.75;2.88;;;;;;;;;;5076049;28;20064;-45
2023/09/05 09:42:29;;;;;;;5.65;2.72;;;;;;;;;;5069982;28;20024;-44
2023/09/05 09:44:55;;;;;;;6.38;2.45;;;;;;;;;;5075303;28;20036;-44
2023/09/05 09:47:21;;;;;;;2.97;2.45;;;;;;;;;;5071940;28;20025;-45
2023/09/05 09:49:51;;;;;;;6.95;2.60;;;;;;;;;;5071566;28;20036;-46
2023/09/05 09:52:20;;;;;;;3.85;2.60;;;;;;;;;;5073042;28;20023;-44
2023/09/05 09:54:46;;;;;;;4.63;2.45;;;;;;;;;;5070169;28;20048;-45
2023/09/05 09:57:18;;;;;;;5.95;2.58;;;;;;;;;;5072067;28;20626;-44
2023/09/05 09:59:58;;;;;;;4.93;2.60;;;;;;;;;;5062509;28;20093;-45
2023/09/05 10:02:25;;;;;;;6.32;2.92;;;;;;;;;;5064090;28;20486;-44
2023/09/05 10:04:51;;;;;;;9.63;3.33;;;;;;;;;;5071993;28;20040;-47
2023/09/05 10:07:18;;;;;;;5.18;2.60;;;;;;;;;;5076133;28;20052;-46
2023/09/05 10:09:47;;;;;;;5.70;2.97;;;;;;;;;;5070918;28;20044;-45
2023/09/05 10:12:21;;;;;;;8.02;2.75;;;;;;;;;;5075339;28;20032;-46
2023/09/05 10:14:48;;;;;;;5.00;2.65;;;;;;;;;;5074629;28;20044;-44
2023/09/05 10:17:15;;;;;;;3.78;2.85;;;;;;;;;;5074068;28;20024;-48
2023/09/05 10:19:42;;;;;;;6.90;3.22;;;;;;;;;;5068924;28;20529;-49
2023/09/05 10:22:09;;;;;;;3.50;2.58;;;;;;;;;;5075160;28;20089;-45
2023/09/05 10:24:36;;;;;;;3.45;2.63;;;;;;;;;;5071576;28;20119;-46
2023/09/05 10:27:03;;;;;;;6.97;2.72;;;;;;;;;;5067285;28;20027;-47
2023/09/05 10:29:44;;;;;;;4.63;2.83;;;;;;;;;;5074635;28;20109;-45
2023/09/05 10:32:22;;;;;;;9.85;2.60;;;;;;;;;;5074594;28;20024;-49
2023/09/05 10:34:47;;;;;;;5.10;2.83;;;;;;;;;;5065766;28;20036;-51
2023/09/05 10:37:26;;;;;;;4.72;3.00;;;;;;;;;;5072625;28;20111;-46
2023/09/05 10:39:57;;;;;;;4.07;3.17;;;;;;;;;;5066950;28;20059;-44
2023/09/05 10:42:31;;;;;;;9.80;3.13;;;;;;;;;;5072467;28;20032;-48
2023/09/05 10:44:58;;;;;;;7.05;2.45;;;;;;;;;;5065910;28;20067;-45
2023/09/05 10:47:29;;;;;;;6.60;2.90;;;;;;;;;;5072817;28;20017;-45
2023/09/05 10:49:59;;;;;;;3.25;2.88;;;;;;;;;;5069394;28;20039;-44
2023/09/05 10:52:27;;;;;;;4.20;3.10;;;;;;;;;;5074321;28;20035;-44
2023/09/05 10:54:53;;;;;;;8.10;3.05;;;;;;;;;;5075205;28;20037;-47
2023/09/05 10:57:42;;;;;;;9.00;3.40;;;;;;;;;;5076625;28;20055;-49
2023/09/05 11:00:17;;;;;;;5.95;2.90;;;;;;;;;;5073688;28;20040;-48
2023/09/05 11:02:44;;;;;;;4.55;2.80;;;;;;;;;;5070717;28;20037;-49
2023/09/05 11:05:26;;;;;;;4.95;2.45;;;;;;;;;;5072685;28;20441;-44
2023/09/05 11:07:55;;;;;;;3.13;2.58;;;;;;;;;;5076794;28;20074;-48
2023/09/05 11:10:34;;;;;;;3.97;2.78;;;;;;;;;;5076754;28;20036;-45
2023/09/05 11:13:08;;;;;;;4.00;2.50;;;;;;;;;;5074248;28;20070;-45
2023/09/05 11:15:43;;;;;;;6.20;2.92;;;;;;;;;;5077945;28;20040;-44
2023/09/05 11:18:11;;;;;;;4.82;2.47;;;;;;;;;;5071902;28;20159;-51
2023/09/05 11:20:41;;;;;;;3.95;2.63;;;;;;;;;;5076255;28;20036;-50
2023/09/05 11:23:17;;;;;;;3.95;2.58;;;;;;;;;;5076368;28;20036;-45
2023/09/05 11:25:47;;;;;;;2.45;2.25;;;;;;;;;;5077009;28;20046;-44
2023/09/05 11:28:14;;;;;;;2.47;2.20;;;;;;;;;;5079572;28;20060;-44
2023/09/05 11:30:40;;;;;;;4.18;2.22;;;;;;;;;;5075139;28;20040;-48
2023/09/05 11:33:10;;;;;;;3.50;2.78;;;;;;;;;;5076008;28;20085;-49
2023/09/05 11:35:38;;;;;;;5.63;2.45;;;;;;;;;;5075374;28;20048;-44
2023/09/05 11:38:03;;;;;;;3.42;2.30;;;;;;;;;;5085132;28;20076;-49
2023/09/05 11:40:30;;;;;;;3.63;2.50;;;;;;;;;;5076439;28;20048;-48
2023/09/05 11:43:09;;;;;;;3.85;2.70;;;;;;;;;;5077535;28;20064;-47
2023/09/05 11:45:37;;;;;;;11.73;2.47;;;;;;;;;;5073611;28;20032;-45
2023/09/05 11:48:05;;;;;;;3.22;2.50;;;;;;;;;;5068692;28;20040;-47
2023/09/05 11:50:33;;;;;;;3.97;2.50;;;;;;;;;;5073711;28;20037;-49
2023/09/05 11:53:02;;;;;;;2.45;2.25;;;;;;;;;;5076965;28;20458;-48
2023/09/05 11:55:29;;;;;;;5.88;2.58;;;;;;;;;;5076592;28;20120;-49
2023/09/05 11:57:56;;;;;;;3.65;2.42;;;;;;;;;;5075834;28;20031;-51
2023/09/05 12:00:23;;;;;;;5.18;2.70;;;;;;;;;;5073719;28;20116;-46
2023/09/05 12:02:54;;;;;;;12.15;2.70;;;;;;;;;;5072322;28;20024;-46
2023/09/05 12:05:20;;;;;;;4.88;2.63;;;;;;;;;;5076087;28;20032;-49
2023/09/05 12:07:52;;;;;;;4.97;2.72;;;;;;;;;;5077750;28;20413;-46
2023/09/05 12:10:18;;;;;;;2.80;2.50;;;;;;;;;;5073298;28;20028;-48
2023/09/05 12:12:55;;;;;;;3.05;2.60;;;;;;;;;;5077797;28;20112;-43
2023/09/05 12:15:29;;;;;;;5.88;2.85;;;;;;;;;;5074015;28;20033;-45
2023/09/05 12:17:55;;;;;;;9.77;3.40;;;;;;;;;;5070208;28;20037;-48
2023/09/05 12:20:21;;;;;;;4.28;3.05;;;;;;;;;;5075303;28;20054;-46
2023/09/05 12:22:47;;;;;;;6.22;2.75;;;;;;;;;;5076271;28;20615;-49
2023/09/05 12:25:17;;;;;;;5.85;2.72;;;;;;;;;;5068852;28;21174;-45
2023/09/05 12:27:44;;;;;;;9.50;2.30;;;;;;;;;;5076356;28;20070;-43
2023/09/05 12:30:32;;;;;;;4.10;2.63;;;;;;;;;;5076248;28;20046;-43
2023/09/05 12:33:00;;;;;;;7.15;2.97;;;;;;;;;;5075964;28;20062;-46
2023/09/05 12:35:28;;;;;;;6.88;2.72;;;;;;;;;;5075938;28;20044;-44
2023/09/05 12:37:55;;;;;;;5.82;2.95;;;;;;;;;;5077229;28;20078;-44
2023/09/05 12:40:22;;;;;;;7.75;2.75;;;;;;;;;;5076190;28;20036;-45
2023/09/05 12:42:49;;;;;;;3.70;2.53;;;;;;;;;;5074319;28;20032;-46
2023/09/05 12:45:15;;;;;;;6.75;2.40;;;;;;;;;;5076591;28;20036;-46
2023/09/05 12:47:41;;;;;;;4.53;2.40;;;;;;;;;;5077417;28;20035;-47
2023/09/05 12:50:12;;;;;;;7.10;2.47;;;;;;;;;;5073419;28;20040;-44
2023/09/05 12:52:42;;;;;;;8.68;2.60;;;;;;;;;;5075752;28;20020;-46
2023/09/05 12:55:10;;;;;;;4.65;2.80;;;;;;;;;;5076372;28;20116;-47
2023/09/05 12:57:37;;;;;;;6.70;2.38;;;;;;;;;;5075084;28;20550;-48
2023/09/05 13:00:03;;;;;;;2.53;2.30;;;;;;;;;;5071420;28;20159;-45
2023/09/05 13:02:28;;;;;;;6.97;2.40;;;;;;;;;;5077431;28;20027;-48
2023/09/05 13:04:54;;;;;;;6.30;2.65;;;;;;;;;;5073863;28;20644;-45
2023/09/05 13:07:19;;;;;;;5.35;2.97;;;;;;;;;;5066298;28;20606;-46
2023/09/05 13:09:45;;;;;;;5.15;2.17;;;;;;;;;;5073409;28;20372;-46
2023/09/05 13:12:10;;;;;;;9.82;3.00;;;;;;;;;;5070197;28;20029;-44
2023/09/05 13:14:35;;;;;;;7.75;2.45;;;;;;;;;;5074028;28;20029;-45
2023/09/05 13:17:02;;;;;;;4.72;2.47;;;;;;;;;;5073653;28;20017;-48
2023/09/05 13:19:27;;;;;;;5.07;2.50;;;;;;;;;;5075533;28;20033;-49
2023/09/05 13:21:53;;;;;;;5.20;2.20;;;;;;;;;;5073568;28;20032;-46
2023/09/05 13:24:18;;;;;;;4.78;2.33;;;;;;;;;;5073905;28;20048;-44
2023/09/05 13:26:44;;;;;;;2.40;2.20;;;;;;;;;;5076264;28;20029;-46
2023/09/05 13:29:09;;;;;;;2.55;2.28;;;;;;;;;;5075417;28;20144;-44
2023/09/05 13:31:34;;;;;;;3.10;1.92;;;;;;;;;;5073437;28;20016;-46
2023/09/05 13:34:00;;;;;;;3.08;2.25;;;;;;;;;;5072061;28;20052;-46
2023/09/05 13:36:25;;;;;;;4.07;2.40;;;;;;;;;;5073974;28;20021;-48
2023/09/05 13:38:50;;;;;;;4.80;2.20;;;;;;;;;;5069341;28;20037;-44
2023/09/05 13:41:16;;;;;;;4.03;2.20;;;;;;;;;;5075510;28;20085;-45
2023/09/05 13:43:41;;;;;;;6.20;2.08;;;;;;;;;;5066761;28;20033;-46
2023/09/05 13:46:07;;;;;;;5.57;2.20;;;;;;;;;;5074835;28;20044;-43
2023/09/05 13:48:34;;;;;;;4.13;2.13;;;;;;;;;;5074007;28;20051;-46
2023/09/05 13:51:00;;;;;;;4.50;2.40;;;;;;;;;;5074492;28;20482;-47
2023/09/05 13:53:25;;;;;;;3.88;2.03;;;;;;;;;;5069243;28;20052;-47
2023/09/05 13:55:52;;;;;;;6.55;2.10;;;;;;;;;;5072083;28;20048;-46
2023/09/05 13:58:18;;;;;;;3.15;2.00;;;;;;;;;;5074828;28;20049;-43
2023/09/05 14:00:44;;;;;;;3.00;2.20;;;;;;;;;;5066228;28;20508;-44
2023/09/05 14:03:09;;;;;;;3.33;2.20;;;;;;;;;;5073813;28;20841;-44
2023/09/05 14:05:35;;;;;;;3.25;2.30;;;;;;;;;;5075570;28;20032;-45
2023/09/05 14:08:01;;;;;;;4.60;2.00;;;;;;;;;;5072975;28;20942;-48
2023/09/05 14:10:27;;;;;;;3.85;2.22;;;;;;;;;;5075071;28;20032;-49
2023/09/05 14:12:52;;;;;;;3.38;2.30;;;;;;;;;;5073074;28;20387;-44
2023/09/05 14:15:18;;;;;;;3.35;2.13;;;;;;;;;;5061195;28;20041;-44
2023/09/05 14:17:43;;;;;;;2.38;2.15;;;;;;;;;;5071879;28;20017;-46
2023/09/05 14:20:10;;;;;;;2.78;2.10;;;;;;;;;;5072181;28;20036;-46
2023/09/05 14:22:35;;;;;;;3.22;2.40;;;;;;;;;;5071517;28;20082;-47
2023/09/05 14:25:00;;;;;;;3.22;1.75;;;;;;;;;;5067927;28;20037;-47
2023/09/05 14:27:26;;;;;;;2.33;1.88;;;;;;;;;;5071733;28;20032;-47
2023/09/05 14:29:51;;;;;;;2.58;2.15;;;;;;;;;;5066257;28;20045;-48
2023/09/05 14:32:17;;;;;;;2.38;2.00;;;;;;;;;;5074367;28;20028;-44
2023/09/05 14:34:42;;;;;;;4.90;2.30;;;;;;;;;;5074887;28;20055;-48
2023/09/05 14:37:08;;;;;;;4.22;2.08;;;;;;;;;;5073392;28;20070;-46
2023/09/05 14:39:33;;;;;;;6.43;2.55;;;;;;;;;;5075170;28;20037;-47
2023/09/05 14:41:59;;;;;;;5.10;2.28;;;;;;;;;;5074809;28;20048;-44